createdAt,value
2023-05-18T04:04:47.515Z,101121.09
2023-05-18T04:07:22.013Z,101117.19
2023-05-18T04:09:49.704Z,101118.88
2023-05-18T04:12:16.724Z,101132.69
2023-05-18T04:14:43.911Z,101129.81
2023-05-18T04:17:10.885Z,101127.63
2023-05-18T04:19:38.443Z,101129.75
2023-05-18T04:22:08.827Z,101125.75
2023-05-18T04:24:37.442Z,101128.59
2023-05-18T04:27:04.642Z,101120.97
2023-05-18T04:29:33.942Z,101124.50
2023-05-18T04:32:01.228Z,101120.91
2023-05-18T04:34:29.697Z,101126.94
2023-05-18T04:36:58.876Z,101128.63
2023-05-18T04:39:26.237Z,101133.81
2023-05-18T04:41:58.574Z,101136.28
2023-05-18T04:44:27.953Z,101140.31
2023-05-18T04:46:57.208Z,101131.41
2023-05-18T04:49:26.260Z,101142.31
2023-05-18T04:51:59.535Z,101149.03
2023-05-18T14:35:46.452Z,101325.69
2023-05-18T14:38:13.262Z,101318.69
2023-05-18T14:40:40.440Z,101297.69
2023-05-18T14:43:07.348Z,101309.97
2023-05-18T14:45:34.250Z,101306.44
2023-05-18T14:48:01.169Z,101322.97
2023-05-18T14:50:28.243Z,101312.47
2023-05-18T14:52:55.222Z,101309.97
2023-05-18T14:55:22.196Z,101310.03
2023-05-18T14:57:49.090Z,101335.31
2023-05-18T15:00:16.553Z,101299.50
2023-05-18T15:02:43.630Z,101326.59
2023-05-18T15:05:11.310Z,101330.13
2023-05-18T15:07:38.174Z,101312.59
2023-05-18T15:10:06.948Z,101302.19
2023-05-18T15:12:33.945Z,101338.00
2023-05-18T15:15:01.204Z,101311.81
2023-05-18T15:17:28.092Z,101325.75
2023-05-18T15:19:55.068Z,101327.50
2023-05-18T15:22:23.391Z,101330.13
2023-05-18T15:24:50.347Z,101331.84
2023-05-18T15:27:17.870Z,101330.16
2023-05-18T15:29:44.772Z,101319.66
2023-05-18T15:32:11.671Z,101320.53
2023-05-18T15:34:38.673Z,101312.66
2023-05-18T15:37:05.511Z,101317.03
2023-05-18T15:39:32.376Z,101316.19
2023-05-18T15:41:59.264Z,101317.94
2023-05-18T15:44:28.695Z,101335.44
2023-05-18T15:46:56.443Z,101306.63
2023-05-18T15:49:25.428Z,101311.00
2023-05-18T15:51:58.149Z,101307.53
2023-05-18T15:54:25.062Z,101333.69
2023-05-18T15:56:52.386Z,101326.69
2023-05-18T15:59:19.201Z,101317.09
2023-05-18T16:01:46.389Z,101311.00
2023-05-18T16:04:14.148Z,101304.88
2023-05-18T16:06:41.596Z,101299.69
2023-05-18T16:09:08.568Z,101327.59
2023-05-18T16:11:38.410Z,101323.25
2023-05-18T16:14:05.498Z,101312.78
2023-05-18T16:17:09.517Z,101331.06
2023-05-18T16:19:36.608Z,101332.81
2023-05-18T16:22:03.474Z,101299.69
2023-05-18T16:24:30.462Z,101326.69
2023-05-18T16:26:57.372Z,101326.72
2023-05-18T16:29:24.362Z,101321.47
2023-05-18T16:31:52.208Z,101325.84
2023-05-18T16:34:19.508Z,101335.44
2023-05-18T16:36:46.744Z,101324.94
2023-05-18T16:39:13.629Z,101322.28
2023-05-18T16:41:40.574Z,101329.25
2023-05-18T16:44:07.461Z,101331.00
2023-05-18T16:46:34.479Z,101327.47
2023-05-18T16:49:01.485Z,101330.97
2023-05-18T16:51:28.550Z,101331.81
2023-05-18T16:53:55.662Z,101345.72
2023-05-18T16:56:22.823Z,101354.41
2023-05-18T16:58:53.810Z,101339.63
2023-05-18T17:01:27.986Z,101353.53
2023-05-18T17:03:56.236Z,101347.47
2023-05-18T17:06:23.226Z,101348.28
2023-05-18T17:08:57.651Z,101357.03
2023-05-18T17:11:26.847Z,101334.28
2023-05-18T17:13:54.481Z,101345.59
2023-05-18T17:16:22.298Z,101353.34
2023-05-18T17:18:49.819Z,101349.78
2023-05-18T17:21:16.908Z,101356.72
2023-05-18T17:23:43.857Z,101363.66
2023-05-18T17:26:10.683Z,101360.13
2023-05-18T17:28:37.655Z,101363.56
2023-05-18T17:31:04.793Z,101353.97
2023-05-18T17:33:32.067Z,101357.41
2023-05-18T17:35:58.914Z,101374.75
2023-05-18T17:38:26.855Z,101362.59
2023-05-18T17:40:53.692Z,101361.63
2023-05-18T17:43:20.757Z,101367.72
2023-05-18T17:45:47.701Z,101353.75
2023-05-18T17:48:14.772Z,101369.41
2023-05-18T17:50:42.418Z,101362.41
2023-05-18T17:53:09.277Z,101378.88
2023-05-18T17:55:36.181Z,101370.97
2023-05-18T17:58:03.717Z,101372.69
2023-05-18T18:00:31.045Z,101366.50
2023-05-18T18:02:58.272Z,101362.13
2023-05-18T18:05:25.476Z,101374.31
2023-05-18T18:07:52.517Z,101368.06
2023-05-18T18:10:19.637Z,101369.88
2023-05-18T18:12:46.516Z,101379.38
2023-05-18T18:15:13.560Z,101371.50
2023-05-18T18:17:40.589Z,101372.31
2023-05-18T18:20:09.680Z,101383.53
2023-05-18T18:22:36.531Z,101370.34
2023-05-18T18:25:03.503Z,101379.91
2023-05-18T18:27:30.997Z,101381.56
2023-05-18T18:29:57.843Z,101371.00
2023-05-18T18:32:24.798Z,101376.16
2023-05-18T18:34:51.911Z,101370.88
2023-05-18T18:37:18.770Z,101376.81
2023-05-18T18:39:46.375Z,101373.41
2023-05-18T18:42:14.217Z,101382.91
2023-05-18T18:44:42.576Z,101390.56
2023-05-18T18:47:09.527Z,101384.34
2023-05-18T18:49:36.515Z,101384.31
2023-05-18T18:52:04.059Z,101388.56
2023-05-18T18:54:31.051Z,101384.16
2023-05-18T18:56:58.132Z,101387.53
2023-05-18T18:59:25.155Z,101389.13
2023-05-18T19:01:52.020Z,101391.78
2023-05-18T19:04:20.960Z,101386.50
2023-05-18T19:06:49.028Z,101388.03
2023-05-18T19:09:16.090Z,101393.28
2023-05-18T19:11:43.091Z,101383.56
2023-05-18T19:14:09.815Z,101396.56
2023-05-18T19:16:36.989Z,101390.44
2023-05-18T19:19:08.650Z,101392.16
2023-05-18T19:21:38.724Z,101399.84
2023-05-18T19:24:07.281Z,101392.84
2023-05-18T19:26:34.789Z,101398.81
2023-05-18T19:29:01.598Z,101397.88
2023-05-18T19:31:31.675Z,101394.31
2023-05-18T19:34:01.601Z,101399.41
2023-05-18T19:36:28.492Z,101391.56
2023-05-18T19:38:56.340Z,101396.66
2023-05-18T19:41:24.806Z,101400.81
2023-05-18T19:50:03.830Z,101398.88
2023-05-18T19:52:34.461Z,101398.78
2023-05-18T19:55:02.599Z,101392.63
2023-05-18T19:57:30.215Z,101397.59
2023-05-18T19:59:58.277Z,101395.66
2023-05-18T20:02:27.691Z,101393.78
2023-05-18T20:04:57.852Z,101395.28
2023-05-18T20:07:25.691Z,101401.16
2023-05-18T20:09:55.238Z,101396.72
2023-05-18T20:12:23.787Z,101406.94
2023-05-18T20:14:51.911Z,101407.72
2023-05-18T20:17:24.052Z,101406.75
2023-05-18T20:19:52.122Z,101405.88
2023-05-18T20:22:19.673Z,101415.28
2023-05-18T20:24:46.647Z,101408.25
2023-05-18T20:27:16.154Z,101410.75
2023-05-18T20:29:43.488Z,101410.69
2023-05-18T20:32:10.847Z,101418.41
2023-05-18T20:34:38.877Z,101417.47
2023-05-18T20:37:09.153Z,101417.31
2023-05-18T20:39:37.653Z,101419.84
2023-05-18T20:42:06.719Z,101423.16
2023-05-18T20:44:35.070Z,101434.19
2023-05-18T20:47:02.634Z,101433.16
2023-05-18T20:49:31.708Z,101432.97
2023-05-18T20:52:08.114Z,101432.78
2023-05-18T20:54:35.026Z,101434.31
2023-05-18T20:57:01.900Z,101439.25
2023-05-18T20:59:29.651Z,101439.84
2023-05-18T21:01:56.820Z,101443.94
2023-05-18T21:04:24.192Z,101447.16
2023-05-18T21:06:51.150Z,101450.47
2023-05-18T21:09:18.720Z,101457.19
2023-05-18T21:11:45.769Z,101452.72
2023-05-18T21:14:12.571Z,101443.91
2023-05-18T21:16:39.488Z,101448.97
2023-05-18T21:19:06.401Z,101454.94
2023-05-18T21:21:33.281Z,101457.38
2023-05-18T21:24:01.153Z,101451.09
2023-05-18T21:26:28.255Z,101450.91
2023-05-18T21:28:55.058Z,101456.81
2023-05-18T21:31:21.944Z,101451.50
2023-05-18T21:33:48.823Z,101452.25
2023-05-18T21:36:16.046Z,101450.38
2023-05-18T21:38:43.081Z,101453.69
2023-05-18T21:41:10.226Z,101458.78
2023-05-18T21:43:37.015Z,101461.97
2023-05-18T21:46:04.015Z,101458.38
2023-05-18T21:48:30.818Z,101458.34
2023-05-18T21:50:57.657Z,101459.03
2023-05-18T21:53:29.558Z,101460.59
2023-05-18T21:55:56.398Z,101465.75
2023-05-18T21:58:24.596Z,101469.16
2023-05-18T22:00:56.495Z,101463.78
2023-05-18T22:03:25.015Z,101466.22
2023-05-18T22:05:53.244Z,101464.19
2023-05-18T22:08:20.168Z,101470.91
2023-05-18T22:10:47.052Z,101468.13
2023-05-18T22:13:13.906Z,101460.19
2023-05-18T22:15:40.968Z,101461.72
2023-05-18T22:18:07.864Z,101465.88
2023-05-18T22:20:35.126Z,101458.78
2023-05-18T22:23:03.378Z,101462.16
2023-05-18T22:25:31.261Z,101467.31
2023-05-18T22:27:58.106Z,101462.84
2023-05-18T22:30:25.061Z,101467.91
2023-05-18T22:32:52.018Z,101467.84
2023-05-18T22:35:18.873Z,101466.84
2023-05-18T22:37:46.290Z,101470.09
2023-05-18T22:40:17.742Z,101467.38
2023-05-18T22:42:44.524Z,101462.84
2023-05-18T22:45:12.461Z,101457.59
2023-05-18T22:47:40.136Z,101451.50
2023-05-18T22:50:08.752Z,101457.59
2023-05-18T22:52:36.763Z,101452.34
2023-05-18T22:55:05.512Z,101456.53
2023-05-18T22:57:32.473Z,101456.41
2023-05-18T22:59:59.309Z,101460.66
2023-05-18T23:02:26.852Z,101456.25
2023-05-18T23:04:53.857Z,101457.03
2023-05-18T23:07:22.068Z,101461.16
2023-05-18T23:09:49.220Z,101457.56
2023-05-18T23:12:16.455Z,101454.06
2023-05-18T23:14:44.694Z,101460.84
2023-05-18T23:17:12.537Z,101460.81
2023-05-18T23:19:39.346Z,101452.97
2023-05-18T23:22:06.235Z,101450.22
2023-05-18T23:24:33.400Z,101452.72
2023-05-18T23:27:00.320Z,101450.03
2023-05-18T23:29:27.208Z,101453.44
2023-05-18T23:31:54.267Z,101458.47
2023-05-18T23:34:21.297Z,101459.31
2023-05-18T23:36:53.398Z,101456.53
2023-05-18T23:39:22.310Z,101451.22
2023-05-18T23:41:49.151Z,101446.84
2023-05-18T23:44:16.256Z,101450.06
2023-05-18T23:46:43.427Z,101451.69
2023-05-18T23:49:10.719Z,101455.91
2023-05-18T23:51:37.989Z,101452.31
2023-05-18T23:54:07.400Z,101457.44
2023-05-18T23:56:34.671Z,101452.88
2023-05-18T23:59:02.605Z,101455.38
